OAS8537 SKRG-SKBO
Flight info
| Callsign | OAS8537 |
|---|---|
| Flight time | 0h 31m |
| Altitude | 23000 |
| Route | ISVAT2B ISVAT ISVAT5E |
| Aircraft | B738/M-SDE2E3FGHIRWXY/LB1 |
Departure
| Time | 2026-04-25 02:32 |
|---|---|
| Airport | Jose Maria Córdova International Airport (SKRG) |
Arrival
| Time | 2026-04-25 03:04 |
|---|---|
| Airport | El Dorado International Airport (SKBO) |
| Time | Latitude | Longitude | Altitude | Speed | Heading |
|---|---|---|---|---|---|
| 2026-04-25 01:15 | 6.16977 | -75.42766 | 7017 ft | 0 kts | 330° |
| 2026-04-25 01:49 | 6.16973 | -75.42763 | 7018 ft | 2 kts | 331° |
| 2026-04-25 01:50 | 6.16955 | -75.42755 | 7017 ft | 3 kts | 345° |
| 2026-04-25 01:50 | 6.16935 | -75.42751 | 7017 ft | 3 kts | 360° |
| 2026-04-25 01:50 | 6.16918 | -75.42752 | 7017 ft | 1 kts | 8° |
| 2026-04-25 01:50 | 6.16916 | -75.42753 | 7017 ft | 1 kts | 8° |
| 2026-04-25 01:54 | 6.16921 | -75.42752 | 7017 ft | 1 kts | 8° |
| 2026-04-25 01:54 | 6.16932 | -75.42750 | 7017 ft | 2 kts | 8° |
| 2026-04-25 01:54 | 6.16944 | -75.42748 | 7017 ft | 2 kts | 8° |
| 2026-04-25 01:54 | 6.16946 | -75.42748 | 7017 ft | 0 kts | 8° |
| 2026-04-25 01:55 | 6.16977 | -75.42766 | 7017 ft | 0 kts | 330° |
| 2026-04-25 02:15 | 6.16969 | -75.42761 | 7017 ft | 3 kts | 334° |
| 2026-04-25 02:15 | 6.16950 | -75.42753 | 7019 ft | 3 kts | 348° |
| 2026-04-25 02:16 | 6.16930 | -75.42751 | 7017 ft | 3 kts | 3° |
| 2026-04-25 02:16 | 6.16917 | -75.42753 | 7017 ft | 1 kts | 8° |
| 2026-04-25 02:16 | 6.16916 | -75.42753 | 7017 ft | 1 kts | 8° |
| 2026-04-25 02:22 | 6.16919 | -75.42751 | 7017 ft | 2 kts | 19° |
| 2026-04-25 02:23 | 6.16938 | -75.42734 | 7017 ft | 4 kts | 47° |
| 2026-04-25 02:23 | 6.16959 | -75.42713 | 7017 ft | 4 kts | 45° |
| 2026-04-25 02:23 | 6.16981 | -75.42693 | 7017 ft | 4 kts | 46° |
| 2026-04-25 02:23 | 6.16998 | -75.42669 | 7021 ft | 4 kts | 59° |
| 2026-04-25 02:24 | 6.17011 | -75.42644 | 7016 ft | 4 kts | 61° |
| 2026-04-25 02:24 | 6.17024 | -75.42619 | 7015 ft | 4 kts | 68° |
| 2026-04-25 02:24 | 6.17027 | -75.42592 | 7013 ft | 3 kts | 93° |
| 2026-04-25 02:24 | 6.17021 | -75.42583 | 7013 ft | 2 kts | 129° |
| 2026-04-25 02:25 | 6.17000 | -75.42566 | 7012 ft | 5 kts | 146° |
| 2026-04-25 02:25 | 6.16960 | -75.42540 | 7011 ft | 8 kts | 147° |
| 2026-04-25 02:25 | 6.16899 | -75.42504 | 7007 ft | 12 kts | 153° |
| 2026-04-25 02:25 | 6.16798 | -75.42482 | 7001 ft | 16 kts | 178° |
| 2026-04-25 02:26 | 6.16675 | -75.42476 | 6995 ft | 18 kts | 180° |
| 2026-04-25 02:26 | 6.16549 | -75.42479 | 6990 ft | 18 kts | 179° |
| 2026-04-25 02:26 | 6.16428 | -75.42478 | 6984 ft | 17 kts | 179° |
| 2026-04-25 02:26 | 6.16311 | -75.42476 | 6980 ft | 16 kts | 180° |
| 2026-04-25 02:27 | 6.16198 | -75.42475 | 6977 ft | 16 kts | 179° |
| 2026-04-25 02:27 | 6.16090 | -75.42474 | 6976 ft | 15 kts | 179° |
| 2026-04-25 02:27 | 6.15986 | -75.42473 | 6975 ft | 15 kts | 179° |
| 2026-04-25 02:27 | 6.15886 | -75.42471 | 6974 ft | 14 kts | 179° |
| 2026-04-25 02:28 | 6.15791 | -75.42470 | 6974 ft | 13 kts | 181° |
| 2026-04-25 02:28 | 6.15700 | -75.42471 | 6974 ft | 13 kts | 179° |
| 2026-04-25 02:28 | 6.15609 | -75.42471 | 6975 ft | 14 kts | 180° |
| 2026-04-25 02:28 | 6.15509 | -75.42472 | 6975 ft | 15 kts | 180° |
| 2026-04-25 02:29 | 6.15402 | -75.42471 | 6976 ft | 15 kts | 181° |
| 2026-04-25 02:29 | 6.15298 | -75.42472 | 6976 ft | 15 kts | 180° |
| 2026-04-25 02:29 | 6.15198 | -75.42469 | 6976 ft | 14 kts | 179° |
| 2026-04-25 02:29 | 6.15099 | -75.42469 | 6977 ft | 14 kts | 181° |
| 2026-04-25 02:30 | 6.14995 | -75.42471 | 6977 ft | 16 kts | 181° |
| 2026-04-25 02:30 | 6.14921 | -75.42475 | 6974 ft | 8 kts | 191° |
| 2026-04-25 02:30 | 6.14852 | -75.42481 | 6973 ft | 12 kts | 164° |
| 2026-04-25 02:30 | 6.14816 | -75.42447 | 6971 ft | 6 kts | 111° |
| 2026-04-25 02:31 | 6.14818 | -75.42407 | 6971 ft | 6 kts | 69° |
| 2026-04-25 02:31 | 6.14845 | -75.42377 | 6973 ft | 8 kts | 41° |
| 2026-04-25 02:31 | 6.14923 | -75.42327 | 6974 ft | 20 kts | 27° |
| 2026-04-25 02:31 | 6.15156 | -75.42303 | 6979 ft | 60 kts | 358° |
| 2026-04-25 02:32 | 6.15791 | -75.42310 | 6978 ft | 122 kts | 1° |
| 2026-04-25 02:32 | 6.16820 | -75.42317 | 7000 ft | 171 kts | 357° |
| 2026-04-25 02:32 | 6.18122 | -75.42336 | 7254 ft | 199 kts | 3° |
| 2026-04-25 02:32 | 6.19564 | -75.42371 | 7715 ft | 216 kts | 352° |
| 2026-04-25 02:33 | 6.21125 | -75.42486 | 7968 ft | 238 kts | 9° |
| 2026-04-25 02:33 | 6.22692 | -75.41707 | 7943 ft | 273 kts | 46° |
| 2026-04-25 02:33 | 6.23563 | -75.40024 | 8745 ft | 263 kts | 78° |
| 2026-04-25 02:33 | 6.23844 | -75.38271 | 10016 ft | 252 kts | 86° |
| 2026-04-25 02:34 | 6.23876 | -75.36434 | 10214 ft | 280 kts | 92° |
| 2026-04-25 02:34 | 6.23740 | -75.34326 | 9877 ft | 323 kts | 95° |
| 2026-04-25 02:34 | 6.23513 | -75.31999 | 10202 ft | 338 kts | 95° |
| 2026-04-25 02:34 | 6.23320 | -75.29714 | 11510 ft | 315 kts | 94° |
| 2026-04-25 02:35 | 6.23200 | -75.27622 | 13129 ft | 287 kts | 92° |
| 2026-04-25 02:35 | 6.23141 | -75.25650 | 14157 ft | 282 kts | 89° |
| 2026-04-25 02:35 | 6.23173 | -75.23615 | 14309 ft | 306 kts | 87° |
| 2026-04-25 02:35 | 6.23267 | -75.21349 | 14032 ft | 343 kts | 86° |
| 2026-04-25 02:36 | 6.23426 | -75.18879 | 14219 ft | 360 kts | 85° |
| 2026-04-25 02:36 | 6.23657 | -75.16404 | 15174 ft | 349 kts | 83° |
| 2026-04-25 02:36 | 6.23887 | -75.14043 | 16409 ft | 334 kts | 90° |
| 2026-04-25 02:36 | 6.23473 | -75.11730 | 16850 ft | 345 kts | 112° |
| 2026-04-25 02:37 | 6.22133 | -75.09676 | 16977 ft | 362 kts | 136° |
| 2026-04-25 02:37 | 6.20047 | -75.08219 | 17261 ft | 372 kts | 157° |
| 2026-04-25 02:37 | 6.17554 | -75.07506 | 17766 ft | 374 kts | 175° |
| 2026-04-25 02:37 | 6.14948 | -75.07491 | 18355 ft | 375 kts | 184° |
| 2026-04-25 02:38 | 6.12339 | -75.07747 | 18908 ft | 378 kts | 187° |
| 2026-04-25 02:38 | 6.09719 | -75.08088 | 19417 ft | 381 kts | 188° |
| 2026-04-25 02:38 | 6.07078 | -75.08442 | 19914 ft | 385 kts | 188° |
| 2026-04-25 02:38 | 6.04412 | -75.08779 | 20407 ft | 388 kts | 187° |
| 2026-04-25 02:39 | 6.01724 | -75.09096 | 20940 ft | 389 kts | 187° |
| 2026-04-25 02:39 | 5.99034 | -75.09396 | 21573 ft | 387 kts | 186° |
| 2026-04-25 02:39 | 5.96365 | -75.09683 | 22200 ft | 386 kts | 186° |
| 2026-04-25 02:39 | 5.93695 | -75.09964 | 22766 ft | 386 kts | 186° |
| 2026-04-25 02:40 | 5.91026 | -75.10244 | 23242 ft | 387 kts | 186° |
| 2026-04-25 02:40 | 5.88354 | -75.10523 | 23231 ft | 384 kts | 186° |
| 2026-04-25 02:40 | 5.85697 | -75.10797 | 23248 ft | 384 kts | 186° |
| 2026-04-25 02:40 | 5.83033 | -75.11074 | 23255 ft | 386 kts | 186° |
| 2026-04-25 02:41 | 5.80361 | -75.11353 | 23241 ft | 386 kts | 186° |
| 2026-04-25 02:41 | 5.77710 | -75.11633 | 23235 ft | 387 kts | 186° |
| 2026-04-25 02:41 | 5.75009 | -75.11919 | 23222 ft | 387 kts | 186° |
| 2026-04-25 02:41 | 5.72333 | -75.12201 | 23211 ft | 387 kts | 186° |
| 2026-04-25 02:42 | 5.69643 | -75.12309 | 23180 ft | 387 kts | 173° |
| 2026-04-25 02:42 | 5.67053 | -75.11615 | 23198 ft | 386 kts | 159° |
| 2026-04-25 02:42 | 5.64604 | -75.10620 | 23168 ft | 386 kts | 157° |
| 2026-04-25 02:42 | 5.62090 | -75.09546 | 23164 ft | 386 kts | 156° |
| 2026-04-25 02:43 | 5.59670 | -75.08508 | 23139 ft | 379 kts | 157° |
| 2026-04-25 02:43 | 5.57281 | -75.07495 | 23113 ft | 367 kts | 157° |
| 2026-04-25 02:43 | 5.54948 | -75.06518 | 23119 ft | 365 kts | 157° |
| 2026-04-25 02:43 | 5.52553 | -75.05525 | 23121 ft | 379 kts | 158° |
| 2026-04-25 02:44 | 5.50075 | -75.04502 | 23101 ft | 392 kts | 158° |
| 2026-04-25 02:44 | 5.47518 | -75.03449 | 23088 ft | 404 kts | 158° |
| 2026-04-25 02:44 | 5.44887 | -75.02366 | 23073 ft | 411 kts | 158° |
| 2026-04-25 02:44 | 5.42242 | -75.01277 | 23053 ft | 410 kts | 158° |
| 2026-04-25 02:45 | 5.39613 | -75.00196 | 23041 ft | 407 kts | 158° |
| 2026-04-25 02:45 | 5.36989 | -74.99111 | 23011 ft | 406 kts | 157° |
| 2026-04-25 02:45 | 5.34390 | -74.98011 | 23005 ft | 405 kts | 157° |
| 2026-04-25 02:45 | 5.31802 | -74.96908 | 22993 ft | 403 kts | 157° |
| 2026-04-25 02:46 | 5.29257 | -74.95822 | 22930 ft | 391 kts | 156° |
| 2026-04-25 02:46 | 5.26794 | -74.94774 | 22857 ft | 379 kts | 157° |
| 2026-04-25 02:46 | 5.24393 | -74.93758 | 22774 ft | 368 kts | 157° |
| 2026-04-25 02:46 | 5.22849 | -74.93104 | 22709 ft | 361 kts | 156° |
| 2026-04-25 02:47 | 5.20699 | -74.91806 | 22413 ft | 356 kts | 137° |
| 2026-04-25 02:47 | 5.19158 | -74.89927 | 22015 ft | 354 kts | 121° |
| 2026-04-25 02:47 | 5.17709 | -74.87946 | 21617 ft | 353 kts | 135° |
| 2026-04-25 02:47 | 5.15767 | -74.86460 | 21206 ft | 352 kts | 152° |
| 2026-04-25 02:48 | 5.13482 | -74.85597 | 20837 ft | 350 kts | 167° |
| 2026-04-25 02:48 | 5.11103 | -74.85141 | 20520 ft | 347 kts | 171° |
| 2026-04-25 02:48 | 5.08721 | -74.84764 | 20150 ft | 346 kts | 172° |
| 2026-04-25 02:48 | 5.06328 | -74.84401 | 19520 ft | 353 kts | 172° |
| 2026-04-25 02:49 | 5.03897 | -74.84035 | 19084 ft | 353 kts | 172° |
| 2026-04-25 02:49 | 5.01476 | -74.83618 | 18625 ft | 354 kts | 164° |
| 2026-04-25 02:49 | 4.99219 | -74.82633 | 18167 ft | 355 kts | 147° |
| 2026-04-25 02:49 | 4.97341 | -74.81045 | 17726 ft | 355 kts | 130° |
| 2026-04-25 02:50 | 4.95994 | -74.78979 | 17279 ft | 355 kts | 114° |
| 2026-04-25 02:50 | 4.95317 | -74.76625 | 17030 ft | 347 kts | 96° |
| 2026-04-25 02:50 | 4.95375 | -74.74268 | 16999 ft | 333 kts | 77° |
| 2026-04-25 02:50 | 4.95876 | -74.72029 | 17000 ft | 328 kts | 83° |
| 2026-04-25 02:51 | 4.95802 | -74.69744 | 17028 ft | 331 kts | 101° |
| 2026-04-25 02:51 | 4.94936 | -74.67607 | 17033 ft | 333 kts | 122° |
| 2026-04-25 02:51 | 4.93861 | -74.65547 | 17024 ft | 335 kts | 110° |
| 2026-04-25 02:51 | 4.93307 | -74.63287 | 17038 ft | 335 kts | 92° |
| 2026-04-25 02:52 | 4.93600 | -74.60998 | 17059 ft | 333 kts | 69° |
| 2026-04-25 02:52 | 4.94753 | -74.59009 | 17071 ft | 330 kts | 45° |
| 2026-04-25 02:52 | 4.96567 | -74.57647 | 17067 ft | 325 kts | 23° |
| 2026-04-25 02:52 | 4.98698 | -74.57077 | 16951 ft | 316 kts | 6° |
| 2026-04-25 02:53 | 5.00895 | -74.56887 | 16638 ft | 316 kts | 3° |
| 2026-04-25 02:53 | 5.03080 | -74.56765 | 16332 ft | 312 kts | 2° |
| 2026-04-25 02:53 | 5.05219 | -74.56659 | 16013 ft | 304 kts | 2° |
| 2026-04-25 02:53 | 5.07314 | -74.56559 | 15617 ft | 299 kts | 2° |
| 2026-04-25 02:54 | 5.09380 | -74.56445 | 15205 ft | 295 kts | 8° |
| 2026-04-25 02:54 | 5.11209 | -74.55637 | 15076 ft | 286 kts | 42° |
| 2026-04-25 02:54 | 5.12312 | -74.53983 | 15058 ft | 293 kts | 71° |
| 2026-04-25 02:54 | 5.12660 | -74.51953 | 15073 ft | 300 kts | 91° |
| 2026-04-25 02:55 | 5.12286 | -74.49895 | 15080 ft | 303 kts | 112° |
| 2026-04-25 02:55 | 5.11137 | -74.48085 | 15086 ft | 316 kts | 135° |
| 2026-04-25 02:55 | 5.09360 | -74.46800 | 15082 ft | 316 kts | 157° |
| 2026-04-25 02:55 | 5.07295 | -74.46093 | 15103 ft | 313 kts | 165° |
| 2026-04-25 02:56 | 5.05179 | -74.45513 | 14757 ft | 319 kts | 166° |
| 2026-04-25 02:56 | 5.03017 | -74.44937 | 14312 ft | 323 kts | 165° |
| 2026-04-25 02:56 | 5.00845 | -74.44343 | 13873 ft | 325 kts | 164° |
| 2026-04-25 02:56 | 4.98696 | -74.43733 | 13413 ft | 326 kts | 164° |
| 2026-04-25 02:57 | 4.96532 | -74.43103 | 13215 ft | 320 kts | 164° |
| 2026-04-25 02:57 | 4.94429 | -74.42488 | 13071 ft | 311 kts | 164° |
| 2026-04-25 02:57 | 4.92395 | -74.41864 | 13016 ft | 301 kts | 158° |
| 2026-04-25 02:57 | 4.90707 | -74.40696 | 13036 ft | 292 kts | 135° |
| 2026-04-25 02:58 | 4.89379 | -74.39208 | 13017 ft | 281 kts | 128° |
| 2026-04-25 02:58 | 4.88218 | -74.37692 | 13038 ft | 267 kts | 127° |
| 2026-04-25 02:58 | 4.87137 | -74.36236 | 13048 ft | 254 kts | 127° |
| 2026-04-25 02:58 | 4.86109 | -74.34853 | 13009 ft | 241 kts | 127° |
| 2026-04-25 02:59 | 4.85117 | -74.33529 | 12755 ft | 236 kts | 127° |
| 2026-04-25 02:59 | 4.84137 | -74.32226 | 12462 ft | 232 kts | 127° |
| 2026-04-25 02:59 | 4.83172 | -74.30943 | 12173 ft | 228 kts | 127° |
| 2026-04-25 02:59 | 4.82228 | -74.29687 | 11869 ft | 223 kts | 127° |
| 2026-04-25 03:00 | 4.81309 | -74.28467 | 11561 ft | 215 kts | 126° |
| 2026-04-25 03:00 | 4.80433 | -74.27297 | 11273 ft | 204 kts | 126° |
| 2026-04-25 03:00 | 4.79605 | -74.26200 | 11038 ft | 192 kts | 127° |
| 2026-04-25 03:00 | 4.78798 | -74.25132 | 10770 ft | 191 kts | 127° |
| 2026-04-25 03:01 | 4.77997 | -74.24065 | 10523 ft | 192 kts | 126° |
| 2026-04-25 03:01 | 4.77209 | -74.23012 | 10271 ft | 184 kts | 127° |
| 2026-04-25 03:01 | 4.76464 | -74.22024 | 10016 ft | 175 kts | 126° |
| 2026-04-25 03:01 | 4.75750 | -74.21075 | 9808 ft | 170 kts | 127° |
| 2026-04-25 03:02 | 4.75029 | -74.20114 | 9600 ft | 175 kts | 126° |
| 2026-04-25 03:02 | 4.74289 | -74.19131 | 9337 ft | 177 kts | 127° |
| 2026-04-25 03:02 | 4.73560 | -74.18162 | 9112 ft | 172 kts | 127° |
| 2026-04-25 03:02 | 4.72848 | -74.17214 | 8880 ft | 170 kts | 127° |
| 2026-04-25 03:03 | 4.72137 | -74.16268 | 8667 ft | 170 kts | 127° |
| 2026-04-25 03:03 | 4.71426 | -74.15320 | 8435 ft | 169 kts | 127° |
| 2026-04-25 03:03 | 4.70744 | -74.14418 | 8374 ft | 152 kts | 131° |
| 2026-04-25 03:03 | 4.70178 | -74.13688 | 8365 ft | 104 kts | 126° |
| 2026-04-25 03:04 | 4.69873 | -74.13325 | 8366 ft | 20 kts | 164° |
| 2026-04-25 03:04 | 4.69819 | -74.13309 | 8366 ft | 0 kts | 166° |
| 2026-04-25 03:05 | 4.69810 | -74.13307 | 8366 ft | 4 kts | 169° |
| 2026-04-25 03:05 | 4.69744 | -74.13297 | 8365 ft | 9 kts | 172° |
| 2026-04-25 03:06 | 4.69686 | -74.13305 | 8365 ft | 1 kts | 226° |
| 2026-04-25 03:06 | 4.69682 | -74.13315 | 8365 ft | 4 kts | 251° |
| 2026-04-25 03:06 | 4.69694 | -74.13360 | 8365 ft | 10 kts | 303° |
| 2026-04-25 03:06 | 4.69751 | -74.13433 | 8365 ft | 17 kts | 307° |
| 2026-04-25 03:07 | 4.69819 | -74.13528 | 8365 ft | 16 kts | 307° |
| 2026-04-25 03:07 | 4.69889 | -74.13622 | 8365 ft | 18 kts | 306° |
| 2026-04-25 03:07 | 4.69970 | -74.13726 | 8365 ft | 20 kts | 307° |
| 2026-04-25 03:07 | 4.70060 | -74.13844 | 8365 ft | 22 kts | 307° |
| 2026-04-25 03:08 | 4.70157 | -74.13973 | 8365 ft | 24 kts | 308° |
| 2026-04-25 03:08 | 4.70246 | -74.14089 | 8365 ft | 22 kts | 306° |
| 2026-04-25 03:08 | 4.70341 | -74.14215 | 8365 ft | 23 kts | 307° |
| 2026-04-25 03:08 | 4.70367 | -74.14250 | 8365 ft | 2 kts | 306° |
| 2026-04-25 03:09 | 4.70383 | -74.14273 | 8365 ft | 6 kts | 305° |
| 2026-04-25 03:09 | 4.70401 | -74.14309 | 8365 ft | 6 kts | 276° |
| 2026-04-25 03:09 | 4.70382 | -74.14342 | 8365 ft | 6 kts | 221° |
| 2026-04-25 03:09 | 4.70350 | -74.14365 | 8365 ft | 6 kts | 215° |
| 2026-04-25 03:10 | 4.70317 | -74.14386 | 8365 ft | 6 kts | 212° |
| 2026-04-25 03:10 | 4.70285 | -74.14407 | 8365 ft | 5 kts | 214° |
| 2026-04-25 03:10 | 4.70255 | -74.14429 | 8365 ft | 6 kts | 217° |
| 2026-04-25 03:10 | 4.70214 | -74.14460 | 8365 ft | 9 kts | 217° |
| 2026-04-25 03:11 | 4.70153 | -74.14506 | 8365 ft | 13 kts | 217° |
| 2026-04-25 03:11 | 4.70105 | -74.14542 | 8365 ft | 1 kts | 217° |
| 2026-04-25 03:11 | 4.70088 | -74.14555 | 8365 ft | 5 kts | 216° |
| 2026-04-25 03:11 | 4.70053 | -74.14572 | 8365 ft | 3 kts | 184° |
| 2026-04-25 03:12 | 4.70033 | -74.14565 | 8365 ft | 3 kts | 144° |
| 2026-04-25 03:12 | 4.70026 | -74.14561 | 8365 ft | 0 kts | 144° |
| 2026-04-25 03:12 | 4.70023 | -74.14554 | 8365 ft | 3 kts | 122° |
| 2026-04-25 03:12 | 4.70008 | -74.14530 | 8365 ft | 5 kts | 121° |
| 2026-04-25 03:13 | 4.69978 | -74.14489 | 8365 ft | 9 kts | 126° |
| 2026-04-25 03:13 | 4.69931 | -74.14426 | 8365 ft | 9 kts | 133° |
| 2026-04-25 03:13 | 4.69901 | -74.14431 | 8365 ft | 7 kts | 210° |
| 2026-04-25 03:13 | 4.69882 | -74.14446 | 8365 ft | 1 kts | 223° |
| 2026-04-25 03:14 | 4.69882 | -74.14447 | 8365 ft | 0 kts | 223° |